Time;durP1;ratioP1;P1;durP2;ratioP2;P2;SDS_P1;SDS_P2;PMS_P1;PMS_P2;Temp;Humidity;BMP_temperature;BMP_pressure;BME280_temperature;BME280_humidity;BME280_pressure;Samples;Min_cycle;Max_cycle;Signal;HPM_P1;HPM_P2
2023/01/08 00:01:20;;;;;;;6.47;5.80;;;9.10;99.90;;;;;;5072941;28;20227;-70
2023/01/08 00:03:46;;;;;;;6.87;5.97;;;9.00;99.90;;;;;;5073232;28;20180;-71
2023/01/08 00:06:17;;;;;;;6.10;5.50;;;9.00;99.90;;;;;;5073753;28;20222;-71
2023/01/08 00:08:43;;;;;;;6.87;6.20;;;9.20;99.90;;;;;;5073137;28;20200;-70
2023/01/08 00:11:08;;;;;;;6.17;5.57;;;9.10;99.90;;;;;;5075459;28;20430;-71
2023/01/08 00:13:34;;;;;;;8.27;6.37;;;9.00;99.90;;;;;;5058709;28;20415;-70
2023/01/08 00:16:04;;;;;;;6.00;5.50;;;9.00;99.90;;;;;;5076823;28;20176;-69
2023/01/08 00:18:30;;;;;;;6.00;5.40;;;9.00;99.90;;;;;;5075176;28;20242;-69
2023/01/08 00:20:56;;;;;;;6.20;5.60;;;9.10;99.90;;;;;;5075065;28;20498;-68
2023/01/08 00:23:22;;;;;;;7.10;6.40;;;9.10;99.90;;;;;;5071485;28;20173;-69
2023/01/08 00:25:47;;;;;;;6.37;5.77;;;9.00;99.90;;;;;;5073912;28;20506;-71
2023/01/08 00:28:14;;;;;;;7.73;6.30;;;9.00;99.90;;;;;;5073619;28;20222;-70
2023/01/08 00:30:39;;;;;;;6.60;5.53;;;9.00;99.90;;;;;;5073893;28;20221;-69
2023/01/08 00:33:05;;;;;;;6.73;6.00;;;8.90;99.90;;;;;;5073545;28;20819;-69
2023/01/08 00:35:31;;;;;;;6.67;5.97;;;8.90;99.90;;;;;;5073303;28;20449;-68
2023/01/08 00:37:56;;;;;;;6.40;5.60;;;8.90;99.90;;;;;;5072444;28;20245;-69
2023/01/08 00:40:22;;;;;;;7.40;5.50;;;9.00;99.90;;;;;;5073493;28;20169;-68
2023/01/08 00:42:47;;;;;;;5.50;5.00;;;9.00;99.90;;;;;;5073155;28;20196;-69
2023/01/08 00:45:13;;;;;;;6.47;5.23;;;8.90;99.90;;;;;;5073177;28;20271;-69
2023/01/08 00:47:38;;;;;;;6.37;5.77;;;9.00;99.90;;;;;;5072876;28;20189;-69
2023/01/08 00:50:04;;;;;;;6.17;5.57;;;8.90;99.90;;;;;;5057622;28;20408;-69
2023/01/08 00:52:30;;;;;;;7.00;5.70;;;9.00;99.90;;;;;;5078927;28;20522;-69
2023/01/08 00:54:56;;;;;;;5.30;4.80;;;9.10;99.90;;;;;;5079832;28;20411;-69
2023/01/08 00:57:21;;;;;;;5.67;5.10;;;9.30;99.90;;;;;;5080040;28;20271;-69
2023/01/08 00:59:47;;;;;;;5.83;5.20;;;9.30;99.90;;;;;;5079763;28;20169;-69
2023/01/08 01:02:13;;;;;;;7.67;6.47;;;9.40;99.90;;;;;;5079923;28;20174;-70
2023/01/08 01:04:38;;;;;;;6.10;5.50;;;9.40;99.90;;;;;;5079465;28;20494;-69
2023/01/08 01:07:04;;;;;;;7.00;6.30;;;9.40;99.90;;;;;;5060864;28;20767;-69
2023/01/08 01:09:30;;;;;;;7.50;6.13;;;9.30;99.90;;;;;;5079372;28;20201;-68
2023/01/08 01:11:55;;;;;;;8.17;6.53;;;9.40;99.90;;;;;;5079176;28;20247;-70
2023/01/08 01:14:21;;;;;;;10.17;6.23;;;9.50;99.90;;;;;;5078912;28;20178;-69
2023/01/08 01:16:47;;;;;;;9.93;8.17;;;9.40;99.90;;;;;;5077876;28;20220;-69
2023/01/08 01:19:14;;;;;;;8.70;6.77;;;9.40;99.90;;;;;;5079181;28;20214;-69
2023/01/08 01:21:40;;;;;;;6.23;5.63;;;9.40;99.90;;;;;;5079176;28;20412;-69
2023/01/08 01:24:08;;;;;;;10.77;6.97;;;9.50;99.90;;;;;;5078360;28;20428;-69
2023/01/08 01:26:34;;;;;;;9.30;6.47;;;9.40;99.90;;;;;;5079309;28;20447;-69
2023/01/08 01:29:00;;;;;;;6.20;5.30;;;9.30;99.90;;;;;;5068246;28;20489;-69
2023/01/08 01:31:28;;;;;;;6.70;6.00;;;9.20;99.90;;;;;;5059461;28;20295;-68
2023/01/08 01:33:54;;;;;;;8.13;6.53;;;9.10;99.90;;;;;;5059418;28;20170;-69
2023/01/08 01:36:24;;;;;;;6.47;5.33;;;9.00;99.90;;;;;;5059205;28;20562;-69
2023/01/08 01:38:51;;;;;;;6.23;5.13;;;9.00;99.90;;;;;;5058563;28;20190;-69
2023/01/08 01:41:23;;;;;;;6.23;5.63;;;8.90;99.90;;;;;;5059122;28;20423;-69
2023/01/08 01:43:49;;;;;;;7.97;5.80;;;9.00;99.90;;;;;;5058487;28;20579;-69
2023/01/08 01:46:36;;;;;;;5.77;4.90;;;9.00;99.90;;;;;;5040941;28;20545;-69
2023/01/08 01:49:11;;;;;;;8.20;5.67;;;9.00;99.90;;;;;;5058545;28;20443;-69
2023/01/08 01:51:40;;;;;;;5.83;5.30;;;9.10;99.90;;;;;;5058530;28;20487;-69
2023/01/08 01:54:09;;;;;;;6.37;5.73;;;9.10;99.90;;;;;;5069402;28;20454;-71
2023/01/08 01:56:35;;;;;;;7.30;6.47;;;9.00;99.90;;;;;;5078518;28;20404;-70
2023/01/08 01:59:01;;;;;;;5.87;4.80;;;9.00;99.90;;;;;;5079084;28;20768;-69
2023/01/08 02:01:27;;;;;;;5.87;5.30;;;9.10;99.90;;;;;;5076885;28;20173;-69
2023/01/08 02:03:53;;;;;;;5.40;4.90;;;9.00;99.90;;;;;;5075195;28;20494;-70
2023/01/08 02:06:36;;;;;;;8.13;5.90;;;9.20;99.90;;;;;;5075520;28;20533;-69
2023/01/08 02:09:12;;;;;;;5.80;5.20;;;9.30;99.90;;;;;;5075015;28;20667;-69
2023/01/08 02:12:18;;;;;;;4.97;4.47;;;9.40;99.90;;;;;;5075151;28;20460;-68
2023/01/08 02:14:59;;;;;;;7.20;6.00;;;9.50;99.90;;;;;;5055132;28;20476;-69
2023/01/08 02:17:34;;;;;;;5.97;5.27;;;9.40;99.90;;;;;;5055418;28;20416;-70
2023/01/08 02:20:27;;;;;;;5.67;5.07;;;9.30;99.90;;;;;;5055058;28;20412;-70
2023/01/08 02:23:24;;;;;;;6.23;4.67;;;9.40;99.90;;;;;;5043991;28;20418;-69
2023/01/08 02:26:01;;;;;;;5.13;4.70;;;9.40;99.90;;;;;;5054574;28;20394;-70
2023/01/08 02:28:29;;;;;;;6.87;5.27;;;9.40;99.90;;;;;;5055088;28;20497;-70
2023/01/08 02:30:55;;;;;;;4.90;4.20;;;9.40;99.90;;;;;;5037011;28;20446;-71
2023/01/08 02:33:22;;;;;;;4.83;4.43;;;9.60;99.90;;;;;;5054751;28;20489;-71
2023/01/08 02:35:52;;;;;;;5.30;4.43;;;9.70;99.90;;;;;;5054923;28;20439;-70
2023/01/08 02:38:18;;;;;;;5.27;4.77;;;9.70;99.90;;;;;;5054209;28;20800;-69
2023/01/08 02:41:02;;;;;;;6.17;5.57;;;9.60;99.90;;;;;;5054449;28;20406;-70
2023/01/08 02:43:34;;;;;;;4.80;4.40;;;9.60;99.90;;;;;;5054780;28;20163;-70
2023/01/08 02:46:01;;;;;;;5.00;4.50;;;9.50;99.90;;;;;;5054542;28;20439;-70
2023/01/08 02:48:42;;;;;;;6.13;5.60;;;9.40;99.90;;;;;;5055237;28;20452;-70
2023/01/08 02:51:11;;;;;;;5.30;4.80;;;9.40;99.90;;;;;;5055761;28;20400;-70
2023/01/08 02:53:40;;;;;;;5.27;4.70;;;9.30;99.90;;;;;;5059685;28;20458;-70
2023/01/08 02:56:10;;;;;;;4.90;4.50;;;9.50;99.90;;;;;;5075202;28;20838;-70
2023/01/08 02:58:37;;;;;;;5.50;5.03;;;9.50;99.90;;;;;;5074790;28;20431;-70
2023/01/08 03:01:06;;;;;;;5.20;4.70;;;9.50;99.90;;;;;;5074207;28;20527;-70
2023/01/08 03:03:33;;;;;;;4.90;4.50;;;9.40;99.90;;;;;;5074992;28;20774;-71
2023/01/08 03:06:03;;;;;;;4.90;4.33;;;9.40;99.90;;;;;;5074937;28;20914;-69
2023/01/08 03:08:30;;;;;;;5.73;5.20;;;9.40;99.90;;;;;;5074415;28;20450;-69
2023/01/08 03:11:02;;;;;;;5.63;5.13;;;9.30;99.90;;;;;;5056368;28;20423;-69
2023/01/08 03:13:38;;;;;;;6.77;5.33;;;9.30;99.90;;;;;;5073587;28;20393;-69
2023/01/08 03:16:09;;;;;;;4.57;4.17;;;9.40;99.90;;;;;;5074204;28;20395;-70
2023/01/08 03:18:41;;;;;;;5.30;4.80;;;9.40;99.90;;;;;;5073442;28;20432;-70
2023/01/08 03:21:07;;;;;;;5.20;4.70;;;9.40;99.90;;;;;;5056257;28;20494;-71
2023/01/08 03:23:35;;;;;;;6.20;5.13;;;9.30;99.90;;;;;;5059323;28;20434;-67
2023/01/08 03:26:03;;;;;;;6.23;4.53;;;9.30;99.90;;;;;;5055513;28;20415;-69
2023/01/08 03:28:34;;;;;;;4.53;4.13;;;9.50;99.90;;;;;;5073599;28;20570;-69
2023/01/08 03:31:01;;;;;;;5.40;4.10;;;9.50;99.90;;;;;;5073995;28;20403;-69
2023/01/08 03:33:30;;;;;;;6.03;4.83;;;9.60;99.90;;;;;;5055501;28;20486;-68
2023/01/08 03:35:59;;;;;;;4.60;4.20;;;9.50;99.90;;;;;;5073405;28;20461;-69
2023/01/08 03:38:29;;;;;;;4.43;4.03;;;9.70;99.90;;;;;;5073203;28;20436;-69
2023/01/08 03:41:04;;;;;;;5.30;4.47;;;9.60;99.90;;;;;;5073155;28;20779;-69
2023/01/08 03:43:29;;;;;;;6.33;4.23;;;9.60;99.90;;;;;;5073480;28;20521;-69
2023/01/08 03:45:59;;;;;;;4.80;4.30;;;9.40;99.90;;;;;;5073740;28;20408;-69
2023/01/08 03:48:26;;;;;;;4.47;4.07;;;9.40;99.90;;;;;;5073225;28;20304;-69
2023/01/08 03:50:52;;;;;;;4.93;4.47;;;9.40;99.90;;;;;;5073517;28;20439;-69
2023/01/08 03:53:17;;;;;;;5.53;4.27;;;9.40;99.90;;;;;;5055095;28;20426;-69
2023/01/08 03:55:43;;;;;;;5.40;4.90;;;9.00;99.90;;;;;;5054733;28;20174;-69
2023/01/08 03:58:09;;;;;;;5.63;5.13;;;9.10;99.90;;;;;;5073427;28;20670;-68
2023/01/08 04:00:34;;;;;;;4.93;4.53;;;9.20;99.90;;;;;;5073381;28;20185;-69
2023/01/08 04:03:00;;;;;;;6.60;4.67;;;9.20;99.90;;;;;;5073513;28;20177;-69
2023/01/08 04:05:25;;;;;;;4.77;4.37;;;9.20;99.90;;;;;;5053728;28;20209;-69
2023/01/08 04:07:55;;;;;;;5.87;4.67;;;9.20;99.90;;;;;;5072687;28;20320;-69
2023/01/08 04:10:21;;;;;;;5.20;4.70;;;9.20;99.90;;;;;;5072529;28;20173;-69
2023/01/08 04:12:46;;;;;;;5.20;4.70;;;9.30;99.90;;;;;;5073006;28;20542;-69
2023/01/08 04:15:12;;;;;;;7.03;4.53;;;9.20;99.90;;;;;;5072967;28;20929;-70
2023/01/08 04:17:37;;;;;;;5.37;4.80;;;9.10;99.90;;;;;;5072959;28;20235;-69
2023/01/08 04:20:03;;;;;;;3.97;3.67;;;9.10;99.90;;;;;;5072805;28;20165;-70
2023/01/08 04:22:29;;;;;;;5.50;4.77;;;9.00;99.90;;;;;;5072559;28;20223;-69
2023/01/08 04:24:54;;;;;;;5.10;4.60;;;9.00;99.90;;;;;;5071111;28;20432;-69
2023/01/08 04:27:20;;;;;;;4.50;4.10;;;9.10;99.90;;;;;;5072544;28;20252;-69
2023/01/08 04:29:45;;;;;;;4.63;4.23;;;9.30;99.90;;;;;;5073421;28;20170;-69
2023/01/08 04:32:11;;;;;;;5.47;4.67;;;9.30;99.90;;;;;;5073409;28;20608;-69
2023/01/08 04:34:36;;;;;;;5.10;4.00;;;9.10;99.90;;;;;;5072774;28;20693;-69
2023/01/08 04:37:02;;;;;;;4.07;3.77;;;9.20;99.90;;;;;;5072689;28;20187;-69
2023/01/08 04:39:28;;;;;;;5.47;4.10;;;9.30;99.90;;;;;;5072159;28;20170;-69
2023/01/08 04:41:53;;;;;;;4.50;4.10;;;9.40;99.90;;;;;;5072706;28;20174;-69
2023/01/08 04:44:19;;;;;;;4.10;3.63;;;9.40;99.90;;;;;;5072849;28;20254;-69
2023/01/08 04:46:45;;;;;;;5.30;4.07;;;9.40;99.90;;;;;;5072591;28;20547;-69
2023/01/08 04:49:11;;;;;;;4.33;3.93;;;9.60;99.90;;;;;;5072410;28;20199;-69
2023/01/08 04:51:37;;;;;;;4.00;3.60;;;9.80;99.90;;;;;;5072660;28;20608;-68
2023/01/08 04:54:03;;;;;;;4.63;3.70;;;10.00;99.90;;;;;;5072400;28;20452;-69
2023/01/08 04:56:28;;;;;;;4.20;3.80;;;10.10;99.90;;;;;;5073279;28;20169;-70
2023/01/08 04:58:54;;;;;;;4.87;4.00;;;10.10;99.90;;;;;;5073756;28;20177;-70
2023/01/08 05:01:23;;;;;;;5.13;4.50;;;10.00;99.90;;;;;;5073808;28;20194;-70
2023/01/08 05:04:01;;;;;;;4.17;3.77;;;10.10;99.90;;;;;;5073306;28;20174;-70
2023/01/08 05:06:28;;;;;;;3.70;3.20;;;10.20;99.90;;;;;;5073211;28;20433;-70
2023/01/08 05:08:54;;;;;;;2.73;2.53;;;10.30;99.90;;;;;;5072434;28;20453;-70
2023/01/08 05:11:20;;;;;;;3.40;2.67;;;10.30;99.90;;;;;;5056612;28;20416;-70
2023/01/08 05:13:47;;;;;;;3.63;2.80;;;10.30;99.90;;;;;;5053136;28;20948;-70
2023/01/08 05:16:14;;;;;;;3.10;2.80;;;10.40;99.90;;;;;;5052755;28;20440;-70
2023/01/08 05:18:39;;;;;;;4.33;3.40;;;10.50;99.90;;;;;;5053038;28;20490;-69
2023/01/08 05:21:05;;;;;;;3.90;2.23;;;10.50;99.90;;;;;;5055413;28;20949;-69
2023/01/08 05:23:33;;;;;;;4.30;2.20;;;10.60;99.90;;;;;;5056930;28;20196;-70
2023/01/08 05:26:00;;;;;;;3.27;2.40;;;10.60;99.90;;;;;;5072468;28;20173;-69
2023/01/08 05:28:26;;;;;;;2.70;2.23;;;10.60;99.90;;;;;;5072642;28;20468;-69
2023/01/08 05:30:53;;;;;;;3.20;2.20;;;10.60;99.90;;;;;;5054706;28;20419;-69
2023/01/08 05:33:19;;;;;;;2.73;2.00;;;10.70;99.90;;;;;;5072459;28;20434;-68
2023/01/08 05:35:44;;;;;;;2.53;2.20;;;10.60;99.90;;;;;;5072127;28;20471;-69
2023/01/08 05:38:10;;;;;;;2.00;1.53;;;10.60;99.90;;;;;;5074836;28;20427;-69
2023/01/08 05:40:36;;;;;;;2.20;1.83;;;10.70;99.90;;;;;;5075639;28;20953;-69
2023/01/08 05:43:04;;;;;;;1.90;1.70;;;10.60;99.90;;;;;;5057961;28;20305;-69
2023/01/08 05:45:29;;;;;;;2.30;2.10;;;10.70;99.90;;;;;;5075993;28;20245;-69
2023/01/08 05:47:55;;;;;;;2.70;1.87;;;10.60;99.90;;;;;;5075782;28;20552;-70
2023/01/08 05:50:21;;;;;;;2.13;1.90;;;10.60;99.90;;;;;;5075678;28;20505;-69
2023/01/08 05:52:46;;;;;;;2.03;1.93;;;10.60;99.90;;;;;;5075769;28;20556;-70
2023/01/08 05:55:12;;;;;;;3.70;2.07;;;10.70;99.90;;;;;;5075534;28;20184;-70
2023/01/08 05:57:37;;;;;;;2.07;1.73;;;10.60;99.90;;;;;;5074761;28;20194;-70
2023/01/08 06:00:05;;;;;;;1.87;1.63;;;10.50;99.90;;;;;;5075589;28;20162;-70
2023/01/08 06:02:31;;;;;;;1.93;1.70;;;10.50;99.90;;;;;;5075284;28;20166;-69
2023/01/08 06:04:56;;;;;;;1.77;1.60;;;10.50;99.90;;;;;;5075223;28;20411;-70
2023/01/08 06:07:22;;;;;;;1.87;1.77;;;10.40;99.90;;;;;;5075135;28;20265;-70
2023/01/08 06:09:47;;;;;;;2.60;1.70;;;10.40;99.90;;;;;;5056993;28;20218;-70
2023/01/08 06:12:13;;;;;;;2.33;1.50;;;10.30;99.90;;;;;;5075597;28;20197;-69
2023/01/08 06:14:38;;;;;;;1.63;1.23;;;10.30;99.90;;;;;;5074899;28;20200;-70
2023/01/08 06:17:04;;;;;;;1.87;1.67;;;10.40;99.90;;;;;;5057247;28;20743;-70
2023/01/08 06:19:29;;;;;;;1.70;1.60;;;10.40;99.90;;;;;;5075399;28;20171;-69
2023/01/08 06:21:55;;;;;;;1.63;1.53;;;10.30;99.90;;;;;;5075238;28;20207;-70
2023/01/08 06:24:21;;;;;;;1.30;1.20;;;10.40;99.90;;;;;;5073640;28;20170;-70
2023/01/08 06:26:46;;;;;;;1.93;1.40;;;10.40;99.90;;;;;;5074829;28;20540;-70
2023/01/08 06:29:12;;;;;;;1.50;1.40;;;10.50;99.90;;;;;;5074753;28;20198;-70
2023/01/08 06:31:37;;;;;;;2.17;1.97;;;10.50;99.90;;;;;;5076281;28;20540;-70
2023/01/08 06:34:03;;;;;;;1.60;1.50;;;10.30;99.90;;;;;;5076470;28;20625;-70
2023/01/08 06:36:29;;;;;;;2.43;1.97;;;10.40;99.90;;;;;;5076356;28;20684;-70
2023/01/08 06:38:54;;;;;;;3.47;1.57;;;10.40;99.90;;;;;;5057239;28;20560;-69
2023/01/08 06:41:20;;;;;;;2.00;1.80;;;10.30;99.90;;;;;;5075979;28;20222;-69
2023/01/08 06:43:46;;;;;;;2.23;1.27;;;10.40;99.90;;;;;;5075625;28;20174;-70
2023/01/08 06:46:11;;;;;;;1.40;1.30;;;10.30;99.90;;;;;;5074834;28;20186;-70
2023/01/08 06:48:37;;;;;;;1.10;1.00;;;10.20;99.90;;;;;;5075016;28;20199;-69
2023/01/08 06:51:03;;;;;;;1.80;1.60;;;10.20;99.90;;;;;;5075289;28;20214;-69
2023/01/08 06:53:29;;;;;;;3.00;1.40;;;10.30;99.90;;;;;;5074574;28;20179;-70
2023/01/08 06:55:57;;;;;;;1.73;1.63;;;10.30;99.90;;;;;;5074126;28;20897;-69
2023/01/08 06:58:23;;;;;;;1.47;1.33;;;10.20;99.90;;;;;;5072999;28;20283;-70
2023/01/08 07:00:49;;;;;;;1.73;1.30;;;10.00;99.90;;;;;;5074528;28;20466;-69
2023/01/08 07:03:15;;;;;;;1.33;1.13;;;10.00;99.90;;;;;;5074317;28;20449;-69
2023/01/08 07:05:40;;;;;;;1.33;1.23;;;10.00;99.90;;;;;;5075031;28;20174;-69
2023/01/08 07:08:09;;;;;;;2.07;1.30;;;10.10;99.90;;;;;;5073982;28;20199;-69
2023/01/08 07:10:34;;;;;;;1.47;1.13;;;10.20;99.90;;;;;;5073697;28;20165;-69
2023/01/08 07:13:00;;;;;;;2.37;1.30;;;10.20;99.90;;;;;;5074404;28;20405;-69
2023/01/08 07:15:25;;;;;;;1.63;1.10;;;10.20;99.90;;;;;;5074419;28;20167;-69
2023/01/08 07:17:51;;;;;;;1.37;1.23;;;10.30;99.90;;;;;;5072101;28;20257;-69
2023/01/08 07:20:16;;;;;;;1.87;1.67;;;10.20;99.90;;;;;;5053819;28;20170;-69
2023/01/08 07:22:42;;;;;;;1.30;1.00;;;10.10;99.90;;;;;;5056207;28;20210;-69
2023/01/08 07:25:08;;;;;;;1.43;0.90;;;10.10;99.90;;;;;;5059239;28;20806;-70
2023/01/08 07:27:33;;;;;;;1.10;1.00;;;10.10;99.90;;;;;;5073602;28;20205;-69
2023/01/08 07:29:59;;;;;;;1.50;1.30;;;10.00;99.90;;;;;;5055540;28;20170;-69
2023/01/08 07:32:24;;;;;;;1.30;1.20;;;10.00;99.90;;;;;;5074192;28;20224;-69
2023/01/08 07:34:53;;;;;;;1.30;1.20;;;10.00;99.90;;;;;;5074155;28;20208;-69
2023/01/08 07:37:18;;;;;;;1.70;1.40;;;10.10;99.90;;;;;;5074289;28;20239;-70
2023/01/08 07:39:44;;;;;;;1.50;1.23;;;10.20;99.90;;;;;;5074307;28;20456;-70
2023/01/08 07:42:09;;;;;;;1.57;1.47;;;10.10;99.90;;;;;;5073029;28;20173;-70
2023/01/08 07:44:35;;;;;;;1.33;1.23;;;10.00;99.90;;;;;;5073454;28;20170;-69
2023/01/08 07:47:00;;;;;;;1.33;1.10;;;10.00;99.90;;;;;;5055345;28;20271;-69
2023/01/08 07:49:26;;;;;;;2.27;1.20;;;9.90;99.90;;;;;;5073675;28;20247;-70
2023/01/08 07:51:51;;;;;;;1.13;0.90;;;9.80;99.90;;;;;;5055868;28;20174;-70
2023/01/08 07:54:17;;;;;;;1.27;1.10;;;9.80;99.90;;;;;;5073671;28;20176;-70
2023/01/08 07:56:43;;;;;;;1.40;1.30;;;9.80;99.90;;;;;;5054900;28;20213;-69
2023/01/08 07:59:08;;;;;;;1.50;1.40;;;9.90;99.90;;;;;;5073565;28;20170;-69
2023/01/08 08:01:34;;;;;;;1.77;1.13;;;9.80;99.90;;;;;;5073506;28;20262;-69
2023/01/08 08:03:59;;;;;;;1.67;1.00;;;9.80;99.90;;;;;;5072976;28;20174;-69
2023/01/08 08:06:25;;;;;;;1.73;1.50;;;9.90;99.90;;;;;;5073052;28;20202;-71
2023/01/08 08:08:50;;;;;;;1.33;1.23;;;9.90;99.90;;;;;;5055067;28;20682;-69
2023/01/08 08:11:16;;;;;;;1.67;1.27;;;9.80;99.90;;;;;;5054385;28;20652;-69
2023/01/08 08:13:43;;;;;;;2.50;1.43;;;9.80;99.90;;;;;;5072802;28;20249;-70
2023/01/08 08:16:10;;;;;;;1.50;1.40;;;9.80;99.90;;;;;;5073214;28;20254;-70
2023/01/08 08:18:35;;;;;;;1.60;1.50;;;9.70;99.90;;;;;;5073070;28;20509;-69
2023/01/08 08:21:01;;;;;;;3.23;2.93;;;9.80;99.90;;;;;;5073133;28;20455;-70
2023/01/08 08:23:26;;;;;;;1.73;1.00;;;9.70;99.90;;;;;;5073136;28;20178;-70
2023/01/08 08:25:52;;;;;;;3.90;3.00;;;9.70;99.90;;;;;;5071277;28;20264;-70
2023/01/08 08:28:18;;;;;;;1.97;1.30;;;9.70;99.90;;;;;;5072877;28;20659;-70
2023/01/08 08:30:43;;;;;;;2.20;2.00;;;9.80;99.90;;;;;;5072821;28;20212;-70
2023/01/08 08:33:09;;;;;;;2.27;1.30;;;9.80;99.90;;;;;;5053144;28;20431;-70
2023/01/08 08:35:35;;;;;;;5.17;3.70;;;9.80;99.90;;;;;;5072446;28;20224;-70
2023/01/08 08:38:01;;;;;;;2.97;2.67;;;9.80;99.90;;;;;;5072965;28;20525;-69
2023/01/08 08:40:27;;;;;;;1.70;1.60;;;9.80;99.90;;;;;;5072470;28;20404;-69
2023/01/08 08:43:00;;;;;;;1.67;1.53;;;9.70;99.90;;;;;;5072904;28;20407;-70
2023/01/08 08:45:27;;;;;;;2.20;1.70;;;9.80;99.90;;;;;;5054492;28;20177;-70
2023/01/08 08:47:53;;;;;;;3.73;1.63;;;9.90;99.90;;;;;;5071895;28;20859;-71
2023/01/08 08:50:20;;;;;;;1.73;1.63;;;9.80;99.90;;;;;;5071017;28;20418;-70
2023/01/08 08:52:47;;;;;;;3.93;1.50;;;9.80;99.90;;;;;;5072621;28;20483;-70
2023/01/08 08:55:15;;;;;;;1.60;1.50;;;9.90;99.90;;;;;;5072447;28;20407;-70
2023/01/08 08:57:41;;;;;;;2.20;1.67;;;9.80;99.90;;;;;;5072381;28;20798;-68
2023/01/08 09:00:07;;;;;;;1.50;1.40;;;9.90;99.90;;;;;;5072632;28;20416;-70
2023/01/08 09:02:33;;;;;;;1.27;1.17;;;9.90;99.90;;;;;;5072566;28;20535;-70
2023/01/08 09:04:58;;;;;;;1.63;1.53;;;9.90;99.90;;;;;;5072139;28;20490;-70
2023/01/08 09:07:24;;;;;;;1.63;1.30;;;10.00;99.90;;;;;;5072040;28;20247;-70
2023/01/08 09:09:49;;;;;;;2.73;1.57;;;9.90;99.90;;;;;;5072475;28;20166;-70
2023/01/08 09:12:15;;;;;;;1.97;1.60;;;9.80;99.90;;;;;;5074194;28;20171;-70
2023/01/08 09:14:41;;;;;;;1.90;1.23;;;9.80;99.90;;;;;;5070620;28;20656;-69
2023/01/08 09:17:06;;;;;;;6.50;2.10;;;9.90;99.90;;;;;;5076301;28;20188;-70
2023/01/08 09:19:32;;;;;;;1.40;1.30;;;10.00;99.90;;;;;;5076611;28;20206;-71
2023/01/08 09:21:57;;;;;;;1.40;1.27;;;10.00;99.90;;;;;;5076263;28;20850;-70
2023/01/08 09:24:23;;;;;;;1.50;1.30;;;10.10;99.90;;;;;;5076603;28;20726;-70
2023/01/08 09:26:51;;;;;;;5.23;4.10;;;10.10;99.90;;;;;;5076360;28;20635;-70
2023/01/08 09:29:16;;;;;;;1.60;1.50;;;10.10;99.90;;;;;;5076730;28;20194;-70
2023/01/08 09:31:42;;;;;;;1.80;1.70;;;10.10;99.90;;;;;;5076494;28;20458;-70
2023/01/08 09:34:07;;;;;;;1.73;1.40;;;10.10;99.90;;;;;;5076441;28;20258;-71
2023/01/08 09:36:33;;;;;;;1.50;1.40;;;10.30;99.90;;;;;;5076341;28;20225;-71
2023/01/08 09:38:59;;;;;;;2.20;1.33;;;10.30;99.90;;;;;;5075341;28;20184;-70
2023/01/08 09:41:29;;;;;;;3.13;2.83;;;10.40;99.90;;;;;;5076140;28;20183;-69
2023/01/08 09:43:58;;;;;;;4.27;1.93;;;10.50;99.90;;;;;;5076496;28;20775;-70
2023/01/08 09:46:27;;;;;;;2.00;1.20;;;10.60;99.90;;;;;;5076388;28;20412;-70
2023/01/08 09:48:56;;;;;;;1.33;0.97;;;10.50;99.90;;;;;;5074882;28;20554;-70
2023/01/08 09:51:25;;;;;;;3.77;2.13;;;10.50;99.90;;;;;;5075963;28;20447;-70
2023/01/08 09:53:56;;;;;;;1.70;1.60;;;10.40;99.90;;;;;;5076066;28;20437;-70
2023/01/08 09:56:21;;;;;;;1.50;1.40;;;10.50;99.90;;;;;;5076449;28;20932;-70
2023/01/08 09:58:53;;;;;;;3.90;1.93;;;10.70;99.90;;;;;;5075681;28;20431;-70
2023/01/08 10:01:29;;;;;;;3.27;2.60;;;10.80;99.90;;;;;;5076963;28;20177;-70
2023/01/08 10:04:18;;;;;;;2.80;1.47;;;10.80;99.90;;;;;;5074921;28;20960;-70
2023/01/08 10:07:20;;;;;;;1.43;1.27;;;10.90;99.90;;;;;;5075805;28;20600;-70
2023/01/08 10:09:46;;;;;;;1.43;1.33;;;10.70;99.90;;;;;;5076861;28;20433;-70
2023/01/08 10:12:12;;;;;;;2.03;1.33;;;10.80;99.90;;;;;;5075901;28;20410;-70
2023/01/08 10:14:46;;;;;;;1.73;1.37;;;10.80;99.90;;;;;;5074195;28;20421;-70
2023/01/08 10:17:26;;;;;;;1.60;1.20;;;10.70;99.90;;;;;;5075437;28;20420;-70
2023/01/08 10:19:52;;;;;;;1.60;1.20;;;10.80;99.90;;;;;;5074763;28;20469;-70
2023/01/08 10:22:21;;;;;;;2.17;1.43;;;10.80;99.90;;;;;;5056366;28;20522;-70
2023/01/08 10:24:47;;;;;;;1.47;1.30;;;10.80;99.90;;;;;;5075163;28;20402;-70
2023/01/08 10:27:21;;;;;;;1.40;1.07;;;10.90;99.90;;;;;;5075030;28;20454;-69
2023/01/08 10:29:50;;;;;;;5.20;1.43;;;11.00;99.90;;;;;;5084221;22;20634;-69
2023/01/08 10:32:28;;;;;;;1.50;1.40;;;10.90;99.90;;;;;;5057409;28;20411;-69
2023/01/08 10:34:57;;;;;;;1.40;1.30;;;11.20;99.90;;;;;;5057404;28;20432;-67
2023/01/08 10:37:52;;;;;;;1.43;1.33;;;11.20;99.90;;;;;;5075167;28;20401;-68
2023/01/08 10:40:38;;;;;;;1.90;1.33;;;11.20;99.90;;;;;;5058110;28;21010;-67
2023/01/08 10:43:27;;;;;;;1.37;1.20;;;11.30;99.90;;;;;;5075150;28;20882;-68
2023/01/08 10:46:03;;;;;;;1.33;1.23;;;10.90;99.90;;;;;;5074608;28;20435;-67
2023/01/08 10:48:44;;;;;;;1.27;1.17;;;11.10;99.90;;;;;;5074951;28;20436;-68
2023/01/08 10:51:19;;;;;;;1.90;1.50;;;10.90;99.90;;;;;;5073952;28;20963;-69
2023/01/08 10:53:46;;;;;;;1.70;1.57;;;10.90;99.90;;;;;;5075696;28;20419;-67
2023/01/08 10:56:26;;;;;;;1.30;1.13;;;11.10;99.90;;;;;;5073425;28;20469;-68
2023/01/08 10:58:52;;;;;;;1.83;1.33;;;11.30;99.90;;;;;;5074798;28;20400;-67
2023/01/08 11:01:23;;;;;;;1.70;1.50;;;11.30;99.90;;;;;;5075085;28;20417;-67
2023/01/08 11:04:00;;;;;;;1.90;1.63;;;11.20;99.90;;;;;;5075208;28;20388;-68
2023/01/08 11:06:29;;;;;;;3.50;1.60;;;11.30;99.90;;;;;;5071657;28;20429;-68
2023/01/08 11:08:58;;;;;;;1.63;1.53;;;11.50;99.90;;;;;;5054663;28;20444;-68
2023/01/08 11:11:30;;;;;;;3.17;1.30;;;11.70;99.90;;;;;;5054704;28;20408;-68
2023/01/08 11:14:02;;;;;;;1.30;1.10;;;11.60;99.90;;;;;;5062308;28;20419;-68
2023/01/08 11:16:39;;;;;;;1.90;1.30;;;11.70;99.90;;;;;;5074556;28;20381;-68
2023/01/08 11:19:21;;;;;;;1.57;1.23;;;11.80;99.90;;;;;;5074556;28;20428;-68
2023/01/08 11:22:00;;;;;;;1.50;1.10;;;11.80;99.90;;;;;;5060365;28;20394;-68
2023/01/08 11:24:37;;;;;;;1.50;1.10;;;11.80;99.90;;;;;;5054400;28;20393;-68
2023/01/08 11:27:17;;;;;;;1.50;1.17;;;11.70;99.90;;;;;;5054640;28;20384;-68
2023/01/08 11:29:51;;;;;;;2.53;1.30;;;11.80;99.90;;;;;;5053767;28;20460;-68
2023/01/08 11:32:29;;;;;;;1.30;1.20;;;12.00;99.90;;;;;;5054381;28;20393;-68
2023/01/08 11:35:23;;;;;;;1.87;1.30;;;12.10;99.90;;;;;;5053350;28;20386;-68
2023/01/08 11:37:58;;;;;;;1.50;1.30;;;11.90;99.90;;;;;;5040600;28;20414;-69
2023/01/08 11:40:35;;;;;;;1.60;1.50;;;11.80;99.90;;;;;;5054992;28;20478;-69
2023/01/08 11:43:06;;;;;;;2.03;1.63;;;12.00;99.90;;;;;;5056291;28;20386;-69
2023/01/08 11:45:50;;;;;;;1.23;1.10;;;12.20;99.90;;;;;;5075167;28;20439;-69
2023/01/08 11:48:34;;;;;;;1.20;1.03;;;12.20;99.90;;;;;;5075400;28;20440;-69
2023/01/08 11:51:26;;;;;;;1.50;1.30;;;12.20;99.90;;;;;;5073747;28;20804;-69
2023/01/08 11:54:00;;;;;;;2.03;1.40;;;12.40;99.90;;;;;;5077629;28;20373;-69
2023/01/08 11:57:03;;;;;;;1.00;0.90;;;12.30;99.90;;;;;;5077857;28;20380;-69
2023/01/08 12:00:03;;;;;;;1.20;1.10;;;12.40;99.90;;;;;;5083736;28;20424;-70
2023/01/08 12:02:28;;;;;;;1.30;1.17;;;12.20;99.90;;;;;;5083235;28;20400;-69
2023/01/08 12:05:31;;;;;;;1.67;1.10;;;12.20;99.90;;;;;;5083522;28;20413;-69
2023/01/08 12:08:03;;;;;;;1.43;1.10;;;12.30;99.90;;;;;;5083450;28;20191;-70
2023/01/08 12:11:00;;;;;;;1.57;1.23;;;11.90;99.90;;;;;;5083675;28;20423;-70
2023/01/08 12:14:05;;;;;;;1.17;1.00;;;11.80;99.90;;;;;;5085488;28;20376;-69
2023/01/08 12:16:55;;;;;;;1.00;0.90;;;11.60;99.90;;;;;;5044162;28;20419;-68
2023/01/08 12:19:45;;;;;;;1.20;1.10;;;11.70;99.90;;;;;;5073516;28;20557;-68
2023/01/08 12:22:19;;;;;;;1.03;0.90;;;11.60;99.90;;;;;;5072901;28;20918;-68
2023/01/08 12:24:53;;;;;;;1.30;1.20;;;11.60;99.90;;;;;;5073713;28;20398;-69
2023/01/08 12:27:24;;;;;;;1.20;0.90;;;11.60;99.90;;;;;;5074209;28;20395;-68
2023/01/08 12:30:15;;;;;;;0.90;0.90;;;11.70;99.90;;;;;;5073095;28;20597;-69
2023/01/08 12:32:46;;;;;;;0.93;0.87;;;11.70;99.90;;;;;;5073729;28;20374;-69
2023/01/08 12:35:17;;;;;;;0.93;0.80;;;11.80;99.90;;;;;;5073195;28;20392;-69
2023/01/08 12:38:01;;;;;;;1.17;1.07;;;11.90;99.90;;;;;;5073080;28;20491;-70
2023/01/08 12:40:31;;;;;;;1.40;1.10;;;12.20;99.90;;;;;;5073189;28;20959;-69
2023/01/08 12:42:59;;;;;;;1.10;0.90;;;12.30;99.90;;;;;;5073509;28;20471;-70
2023/01/08 12:45:32;;;;;;;1.40;0.80;;;12.30;99.90;;;;;;5073145;28;20408;-70
2023/01/08 12:48:05;;;;;;;0.83;0.70;;;12.30;99.90;;;;;;5073894;28;20444;-69
2023/01/08 12:50:41;;;;;;;1.00;0.70;;;12.00;99.90;;;;;;5073361;28;20427;-69
2023/01/08 12:53:18;;;;;;;1.97;0.97;;;11.80;99.90;;;;;;5070634;28;20907;-69
2023/01/08 12:56:02;;;;;;;1.33;1.03;;;12.00;99.90;;;;;;5073426;28;20390;-69
2023/01/08 12:58:49;;;;;;;1.73;1.20;;;12.00;99.90;;;;;;5073180;28;20873;-68
2023/01/08 13:01:40;;;;;;;1.00;0.90;;;12.10;99.90;;;;;;5071504;28;20435;-69
2023/01/08 13:04:08;;;;;;;1.20;0.90;;;12.10;99.90;;;;;;5072866;28;20392;-68
2023/01/08 13:06:34;;;;;;;1.40;1.10;;;12.50;99.90;;;;;;5073099;28;20481;-68